sensor_id;sensor_type;location;lat;lon;timestamp;pressure;altitude;pressure_sealevel;temperature;humidity
74242;BME280;62599;49.146;10.426;2023-04-25T00:01:12;95062.75;;;5.59;100.00
74242;BME280;62599;49.146;10.426;2023-04-25T00:03:38;95074.41;;;5.63;100.00
74242;BME280;62599;49.146;10.426;2023-04-25T00:06:04;95070.16;;;5.62;100.00
74242;BME280;62599;49.146;10.426;2023-04-25T00:08:30;95066.53;;;5.58;100.00
74242;BME280;62599;49.146;10.426;2023-04-25T00:10:56;95064.81;;;5.53;100.00
74242;BME280;62599;49.146;10.426;2023-04-25T00:13:22;95067.50;;;5.53;100.00
74242;BME280;62599;49.146;10.426;2023-04-25T00:15:47;95077.69;;;5.51;100.00
74242;BME280;62599;49.146;10.426;2023-04-25T00:18:14;95073.00;;;5.48;100.00
74242;BME280;62599;49.146;10.426;2023-04-25T00:20:39;95068.75;;;5.39;100.00
74242;BME280;62599;49.146;10.426;2023-04-25T00:23:05;95078.47;;;5.35;100.00
74242;BME280;62599;49.146;10.426;2023-04-25T00:25:31;95077.38;;;5.27;100.00
74242;BME280;62599;49.146;10.426;2023-04-25T00:27:59;95072.66;;;5.24;100.00
74242;BME280;62599;49.146;10.426;2023-04-25T00:30:25;95074.84;;;5.22;100.00
74242;BME280;62599;49.146;10.426;2023-04-25T00:32:50;95073.28;;;5.21;100.00
74242;BME280;62599;49.146;10.426;2023-04-25T00:35:15;95072.66;;;5.24;100.00
74242;BME280;62599;49.146;10.426;2023-04-25T00:37:41;95069.38;;;5.27;100.00
74242;BME280;62599;49.146;10.426;2023-04-25T00:40:07;95068.25;;;5.28;100.00
74242;BME280;62599;49.146;10.426;2023-04-25T00:42:34;95064.19;;;5.30;100.00
74242;BME280;62599;49.146;10.426;2023-04-25T00:45:00;95061.53;;;5.30;100.00
74242;BME280;62599;49.146;10.426;2023-04-25T00:47:27;95050.03;;;5.30;100.00
74242;BME280;62599;49.146;10.426;2023-04-25T00:49:54;95056.47;;;5.29;100.00
74242;BME280;62599;49.146;10.426;2023-04-25T00:52:20;95059.00;;;5.34;100.00
74242;BME280;62599;49.146;10.426;2023-04-25T00:54:46;95056.63;;;5.32;100.00
74242;BME280;62599;49.146;10.426;2023-04-25T00:57:11;95051.78;;;5.35;100.00
74242;BME280;62599;49.146;10.426;2023-04-25T00:59:37;95054.13;;;5.36;100.00
74242;BME280;62599;49.146;10.426;2023-04-25T01:02:04;95055.06;;;5.40;100.00
74242;BME280;62599;49.146;10.426;2023-04-25T01:04:30;95051.94;;;5.38;100.00
74242;BME280;62599;49.146;10.426;2023-04-25T01:06:55;95050.84;;;5.39;100.00
74242;BME280;62599;49.146;10.426;2023-04-25T01:09:22;95049.28;;;5.38;100.00
74242;BME280;62599;49.146;10.426;2023-04-25T01:11:48;95059.78;;;5.43;100.00
74242;BME280;62599;49.146;10.426;2023-04-25T01:14:14;95054.28;;;5.40;100.00
74242;BME280;62599;49.146;10.426;2023-04-25T01:16:39;95053.50;;;5.39;100.00
74242;BME280;62599;49.146;10.426;2023-04-25T01:19:09;95048.66;;;5.41;100.00
74242;BME280;62599;49.146;10.426;2023-04-25T01:21:36;95047.38;;;5.39;100.00
74242;BME280;62599;49.146;10.426;2023-04-25T01:24:01;95034.97;;;5.34;100.00
74242;BME280;62599;49.146;10.426;2023-04-25T01:26:27;95036.53;;;5.35;100.00
74242;BME280;62599;49.146;10.426;2023-04-25T01:28:52;95040.16;;;5.39;100.00
74242;BME280;62599;49.146;10.426;2023-04-25T01:31:19;95042.38;;;5.46;100.00
74242;BME280;62599;49.146;10.426;2023-04-25T01:33:45;95040.31;;;5.51;100.00
74242;BME280;62599;49.146;10.426;2023-04-25T01:36:10;95037.78;;;5.55;100.00
74242;BME280;62599;49.146;10.426;2023-04-25T01:38:36;95038.13;;;5.53;100.00
74242;BME280;62599;49.146;10.426;2023-04-25T01:41:01;95037.50;;;5.57;100.00
74242;BME280;62599;49.146;10.426;2023-04-25T01:43:27;95029.47;;;5.57;100.00
74242;BME280;62599;49.146;10.426;2023-04-25T01:45:53;95027.25;;;5.59;100.00
74242;BME280;62599;49.146;10.426;2023-04-25T01:48:18;95022.25;;;5.57;100.00
74242;BME280;62599;49.146;10.426;2023-04-25T01:50:44;95028.38;;;5.58;100.00
74242;BME280;62599;49.146;10.426;2023-04-25T01:53:13;95021.31;;;5.53;100.00
74242;BME280;62599;49.146;10.426;2023-04-25T01:55:38;95024.78;;;5.45;100.00
74242;BME280;62599;49.146;10.426;2023-04-25T01:58:04;95027.75;;;5.43;100.00
74242;BME280;62599;49.146;10.426;2023-04-25T02:00:34;95029.00;;;5.37;100.00
74242;BME280;62599;49.146;10.426;2023-04-25T02:03:00;95032.78;;;5.36;100.00
74242;BME280;62599;49.146;10.426;2023-04-25T02:05:25;95029.66;;;5.34;100.00
74242;BME280;62599;49.146;10.426;2023-04-25T02:07:51;95038.09;;;5.36;100.00
74242;BME280;62599;49.146;10.426;2023-04-25T02:10:16;95033.72;;;5.40;100.00
74242;BME280;62599;49.146;10.426;2023-04-25T02:12:42;95030.75;;;5.42;100.00
74242;BME280;62599;49.146;10.426;2023-04-25T02:15:07;95036.72;;;5.39;100.00
74242;BME280;62599;49.146;10.426;2023-04-25T02:17:33;95028.38;;;5.31;100.00
74242;BME280;62599;49.146;10.426;2023-04-25T02:19:58;95035.91;;;5.29;100.00
74242;BME280;62599;49.146;10.426;2023-04-25T02:22:24;95029.63;;;5.25;100.00
74242;BME280;62599;49.146;10.426;2023-04-25T02:24:49;95029.94;;;5.24;100.00
74242;BME280;62599;49.146;10.426;2023-04-25T02:27:15;95037.00;;;5.20;100.00
74242;BME280;62599;49.146;10.426;2023-04-25T02:29:40;95032.75;;;5.19;100.00
74242;BME280;62599;49.146;10.426;2023-04-25T02:32:05;95024.91;;;5.14;100.00
74242;BME280;62599;49.146;10.426;2023-04-25T02:34:31;95024.91;;;5.14;100.00
74242;BME280;62599;49.146;10.426;2023-04-25T02:36:57;95010.75;;;5.04;100.00
74242;BME280;62599;49.146;10.426;2023-04-25T02:39:22;95014.84;;;5.02;100.00
74242;BME280;62599;49.146;10.426;2023-04-25T02:41:50;95013.75;;;4.94;100.00
74242;BME280;62599;49.146;10.426;2023-04-25T02:44:15;95007.75;;;4.89;100.00
74242;BME280;62599;49.146;10.426;2023-04-25T02:46:41;95012.16;;;4.85;100.00
74242;BME280;62599;49.146;10.426;2023-04-25T02:49:06;95005.56;;;4.82;100.00
74242;BME280;62599;49.146;10.426;2023-04-25T02:51:32;95012.16;;;4.76;100.00
74242;BME280;62599;49.146;10.426;2023-04-25T02:53:57;95010.09;;;4.73;100.00
74242;BME280;62599;49.146;10.426;2023-04-25T02:56:23;95008.50;;;4.72;100.00
74242;BME280;62599;49.146;10.426;2023-04-25T02:58:51;95003.50;;;4.70;100.00
74242;BME280;62599;49.146;10.426;2023-04-25T03:01:16;95005.84;;;4.63;100.00
74242;BME280;62599;49.146;10.426;2023-04-25T03:03:41;94999.22;;;4.52;100.00
74242;BME280;62599;49.146;10.426;2023-04-25T03:06:07;95008.00;;;4.52;100.00
74242;BME280;62599;49.146;10.426;2023-04-25T03:08:32;95003.59;;;4.48;100.00
74242;BME280;62599;49.146;10.426;2023-04-25T03:10:59;95006.88;;;4.53;100.00
74242;BME280;62599;49.146;10.426;2023-04-25T03:13:24;95007.38;;;4.55;100.00
74242;BME280;62599;49.146;10.426;2023-04-25T03:15:50;95003.75;;;4.51;100.00
74242;BME280;62599;49.146;10.426;2023-04-25T03:18:16;94997.16;;;4.49;100.00
74242;BME280;62599;49.146;10.426;2023-04-25T03:20:41;95004.22;;;4.45;100.00
74242;BME280;62599;49.146;10.426;2023-04-25T03:23:08;95003.44;;;4.44;100.00
74242;BME280;62599;49.146;10.426;2023-04-25T03:25:33;95016.75;;;4.44;100.00
74242;BME280;62599;49.146;10.426;2023-04-25T03:27:58;95009.38;;;4.41;100.00
74242;BME280;62599;49.146;10.426;2023-04-25T03:30:26;95001.03;;;4.34;100.00
74242;BME280;62599;49.146;10.426;2023-04-25T03:32:52;95007.47;;;4.33;100.00
74242;BME280;62599;49.146;10.426;2023-04-25T03:35:17;95001.31;;;4.24;100.00
74242;BME280;62599;49.146;10.426;2023-04-25T03:37:43;94999.25;;;4.21;100.00
74242;BME280;62599;49.146;10.426;2023-04-25T03:40:11;95004.59;;;4.21;100.00
74242;BME280;62599;49.146;10.426;2023-04-25T03:42:36;95000.22;;;4.25;100.00
74242;BME280;62599;49.146;10.426;2023-04-25T03:45:02;95013.59;;;4.33;100.00
74242;BME280;62599;49.146;10.426;2023-04-25T03:47:28;95010.66;;;4.44;100.00
74242;BME280;62599;49.146;10.426;2023-04-25T03:49:53;95013.81;;;4.54;100.00
74242;BME280;62599;49.146;10.426;2023-04-25T03:52:18;95011.94;;;4.64;100.00
74242;BME280;62599;49.146;10.426;2023-04-25T03:54:44;95010.09;;;4.73;100.00
74242;BME280;62599;49.146;10.426;2023-04-25T03:57:09;95020.47;;;4.83;100.00
74242;BME280;62599;49.146;10.426;2023-04-25T03:59:35;95015.16;;;4.92;100.00
74242;BME280;62599;49.146;10.426;2023-04-25T04:02:01;95012.66;;;4.95;100.00
74242;BME280;62599;49.146;10.426;2023-04-25T04:04:26;95003.69;;;5.00;100.00
74242;BME280;62599;49.146;10.426;2023-04-25T04:06:51;95011.88;;;5.03;100.00
74242;BME280;62599;49.146;10.426;2023-04-25T04:09:17;94999.00;;;5.05;100.00
74242;BME280;62599;49.146;10.426;2023-04-25T04:11:43;95004.97;;;5.11;100.00
74242;BME280;62599;49.146;10.426;2023-04-25T04:14:08;95013.28;;;5.10;100.00
74242;BME280;62599;49.146;10.426;2023-04-25T04:16:35;95016.75;;;5.10;100.00
74242;BME280;62599;49.146;10.426;2023-04-25T04:19:00;95009.22;;;5.12;100.00
74242;BME280;62599;49.146;10.426;2023-04-25T04:21:26;95012.34;;;5.14;100.00
74242;BME280;62599;49.146;10.426;2023-04-25T04:23:52;95014.56;;;5.21;100.00
74242;BME280;62599;49.146;10.426;2023-04-25T04:26:19;95008.59;;;5.24;100.00
74242;BME280;62599;49.146;10.426;2023-04-25T04:28:44;95017.53;;;5.28;100.00
74242;BME280;62599;49.146;10.426;2023-04-25T04:31:10;95009.53;;;5.28;100.00
74242;BME280;62599;49.146;10.426;2023-04-25T04:33:36;95018.97;;;5.34;100.00
74242;BME280;62599;49.146;10.426;2023-04-25T04:36:02;95009.06;;;5.35;100.00
74242;BME280;62599;49.146;10.426;2023-04-25T04:38:28;95006.25;;;5.31;100.00
74242;BME280;62599;49.146;10.426;2023-04-25T04:40:54;95009.03;;;5.26;100.00
74242;BME280;62599;49.146;10.426;2023-04-25T04:43:19;95017.22;;;5.12;100.00
74242;BME280;62599;49.146;10.426;2023-04-25T04:45:45;95009.81;;;5.00;100.00
74242;BME280;62599;49.146;10.426;2023-04-25T04:48:10;95020.94;;;4.94;100.00
74242;BME280;62599;49.146;10.426;2023-04-25T04:50:39;95014.69;;;4.98;100.00
74242;BME280;62599;49.146;10.426;2023-04-25T04:53:05;95027.91;;;5.12;100.00
74242;BME280;62599;49.146;10.426;2023-04-25T04:55:31;95027.41;;;5.19;100.00
74242;BME280;62599;49.146;10.426;2023-04-25T04:57:56;95023.66;;;5.28;100.00
74242;BME280;62599;49.146;10.426;2023-04-25T05:00:21;95025.69;;;5.40;100.00
74242;BME280;62599;49.146;10.426;2023-04-25T05:02:47;95034.03;;;5.47;100.00
74242;BME280;62599;49.146;10.426;2023-04-25T05:05:12;95032.44;;;5.55;100.00
74242;BME280;62599;49.146;10.426;2023-04-25T05:07:38;95029.94;;;5.59;100.00
74242;BME280;62599;49.146;10.426;2023-04-25T05:10:03;95021.94;;;5.67;100.00
74242;BME280;62599;49.146;10.426;2023-04-25T05:12:29;95026.94;;;5.69;100.00
74242;BME280;62599;49.146;10.426;2023-04-25T05:14:55;95029.47;;;5.74;100.00
74242;BME280;62599;49.146;10.426;2023-04-25T05:17:21;95023.94;;;5.79;100.00
74242;BME280;62599;49.146;10.426;2023-04-25T05:19:46;95028.03;;;5.85;100.00
74242;BME280;62599;49.146;10.426;2023-04-25T05:22:12;95021.56;;;5.95;100.00
74242;BME280;62599;49.146;10.426;2023-04-25T05:24:37;95025.63;;;6.10;100.00
74242;BME280;62599;49.146;10.426;2023-04-25T05:27:02;95020.72;;;6.29;100.00
74242;BME280;62599;49.146;10.426;2023-04-25T05:29:28;95022.06;;;6.44;100.00
74242;BME280;62599;49.146;10.426;2023-04-25T05:31:53;95017.16;;;6.55;100.00
74242;BME280;62599;49.146;10.426;2023-04-25T05:34:18;95020.28;;;6.57;100.00
74242;BME280;62599;49.146;10.426;2023-04-25T05:36:44;95029.19;;;6.69;100.00
74242;BME280;62599;49.146;10.426;2023-04-25T05:39:13;95024.16;;;6.68;100.00
74242;BME280;62599;49.146;10.426;2023-04-25T05:41:38;95015.41;;;6.59;100.00
74242;BME280;62599;49.146;10.426;2023-04-25T05:44:04;95022.34;;;6.51;100.00
74242;BME280;62599;49.146;10.426;2023-04-25T05:46:30;95023.97;;;6.43;100.00
74242;BME280;62599;49.146;10.426;2023-04-25T05:48:55;95029.81;;;6.37;100.00
74242;BME280;62599;49.146;10.426;2023-04-25T05:51:21;95026.06;;;6.29;100.00
74242;BME280;62599;49.146;10.426;2023-04-25T05:53:46;95023.09;;;6.22;100.00
74242;BME280;62599;49.146;10.426;2023-04-25T05:56:12;95030.97;;;6.18;100.00
74242;BME280;62599;49.146;10.426;2023-04-25T05:58:41;95020.28;;;6.10;100.00
74242;BME280;62599;49.146;10.426;2023-04-25T06:01:06;95023.75;;;6.10;100.00
74242;BME280;62599;49.146;10.426;2023-04-25T06:03:32;95034.94;;;6.03;100.00
74242;BME280;62599;49.146;10.426;2023-04-25T06:05:57;95030.84;;;5.97;100.00
74242;BME280;62599;49.146;10.426;2023-04-25T06:08:23;95028.63;;;5.91;100.00
74242;BME280;62599;49.146;10.426;2023-04-25T06:10:49;95035.88;;;5.90;100.00
74242;BME280;62599;49.146;10.426;2023-04-25T06:13:15;95026.94;;;5.86;100.00
74242;BME280;62599;49.146;10.426;2023-04-25T06:16:06;95038.88;;;5.80;100.00
74242;BME280;62599;49.146;10.426;2023-04-25T06:18:59;95043.28;;;5.76;100.00
74242;BME280;62599;49.146;10.426;2023-04-25T11:36:23;95177.03;;;11.31;57.44
74242;BME280;62599;49.146;10.426;2023-04-25T11:42:25;95182.28;;;10.65;54.49
74242;BME280;62599;49.146;10.426;2023-04-25T11:49:02;95206.97;;;10.26;58.21
74242;BME280;62599;49.146;10.426;2023-04-25T11:55:32;95197.44;;;9.52;60.27
74242;BME280;62599;49.146;10.426;2023-04-25T11:58:09;95209.72;;;9.89;60.34
74242;BME280;62599;49.146;10.426;2023-04-25T12:00:42;95210.38;;;9.86;59.60
74242;BME280;62599;49.146;10.426;2023-04-25T12:03:12;95204.13;;;9.82;58.72
74242;BME280;62599;49.146;10.426;2023-04-25T12:05:48;95201.59;;;10.02;59.09
74242;BME280;62599;49.146;10.426;2023-04-25T12:08:22;95205.19;;;10.18;58.13
74242;BME280;62599;49.146;10.426;2023-04-25T12:10:51;95207.84;;;10.30;57.65
74242;BME280;62599;49.146;10.426;2023-04-25T12:13:26;95203.88;;;10.96;57.43
74242;BME280;62599;49.146;10.426;2023-04-25T12:16:01;95203.66;;;11.49;53.52
74242;BME280;62599;49.146;10.426;2023-04-25T12:18:29;95200.84;;;11.77;54.01
74242;BME280;62599;49.146;10.426;2023-04-25T12:21:06;95201.47;;;11.70;53.28
74242;BME280;62599;49.146;10.426;2023-04-25T12:23:41;95207.03;;;11.77;54.39
74242;BME280;62599;49.146;10.426;2023-04-25T12:26:10;95204.41;;;11.65;52.63
74242;BME280;62599;49.146;10.426;2023-04-25T12:28:36;95211.41;;;11.19;53.70
74242;BME280;62599;49.146;10.426;2023-04-25T12:31:08;95215.94;;;11.30;55.01
74242;BME280;62599;49.146;10.426;2023-04-25T12:33:40;95220.09;;;11.12;53.17
74242;BME280;62599;49.146;10.426;2023-04-25T12:36:34;95223.47;;;11.09;53.87
74242;BME280;62599;49.146;10.426;2023-04-25T12:39:07;95230.88;;;11.12;53.47
74242;BME280;62599;49.146;10.426;2023-04-25T12:41:38;95229.63;;;10.94;53.93
74242;BME280;62599;49.146;10.426;2023-04-25T12:44:07;95231.84;;;10.76;55.23
74242;BME280;62599;49.146;10.426;2023-04-25T12:46:59;95239.72;;;10.69;55.22
74242;BME280;62599;49.146;10.426;2023-04-25T12:49:31;95237.88;;;10.45;54.48
74242;BME280;62599;49.146;10.426;2023-04-25T12:52:51;95237.75;;;10.81;54.45
74242;BME280;62599;49.146;10.426;2023-04-25T12:55:48;95255.41;;;10.26;56.51
74242;BME280;62599;49.146;10.426;2023-04-25T12:58:27;95239.84;;;10.32;57.34
74242;BME280;62599;49.146;10.426;2023-04-25T13:04:38;95258.00;;;10.63;54.29
74242;BME280;62599;49.146;10.426;2023-04-25T13:07:24;95264.75;;;10.97;54.52
74242;BME280;62599;49.146;10.426;2023-04-25T13:09:56;95256.81;;;10.48;53.79
74242;BME280;62599;49.146;10.426;2023-04-25T13:12:32;95269.25;;;10.65;54.56
74242;BME280;62599;49.146;10.426;2023-04-25T13:14:57;95269.75;;;10.83;53.38
74242;BME280;62599;49.146;10.426;2023-04-25T13:17:41;95261.47;;;10.76;53.98
74242;BME280;62599;49.146;10.426;2023-04-25T13:20:24;95268.69;;;10.59;54.03
74242;BME280;62599;49.146;10.426;2023-04-25T13:26:22;95281.16;;;10.64;55.67
74242;BME280;62599;49.146;10.426;2023-04-25T13:32:08;95286.38;;;9.96;56.66
74242;BME280;62599;49.146;10.426;2023-04-25T13:34:43;95279.63;;;9.65;57.04
74242;BME280;62599;49.146;10.426;2023-04-25T13:37:09;95308.09;;;9.54;57.50
74242;BME280;62599;49.146;10.426;2023-04-25T13:39:40;95289.59;;;9.52;58.15
74242;BME280;62599;49.146;10.426;2023-04-25T13:46:06;95283.44;;;9.76;57.28
74242;BME280;62599;49.146;10.426;2023-04-25T13:52:18;95280.75;;;10.50;57.30
74242;BME280;62599;49.146;10.426;2023-04-25T13:54:53;95284.28;;;10.66;56.11
74242;BME280;62599;49.146;10.426;2023-04-25T14:00:25;95288.66;;;11.43;53.51
74242;BME280;62599;49.146;10.426;2023-04-25T14:03:00;95283.97;;;11.71;54.36
74242;BME280;62599;49.146;10.426;2023-04-25T14:05:55;95287.28;;;11.80;53.58
74242;BME280;62599;49.146;10.426;2023-04-25T14:08:55;95295.84;;;11.39;53.16
74242;BME280;62599;49.146;10.426;2023-04-25T14:31:19;95314.47;;;9.61;60.94
74242;BME280;62599;49.146;10.426;2023-04-25T14:34:18;95326.50;;;10.38;58.49
74242;BME280;62599;49.146;10.426;2023-04-25T14:44:16;95309.03;;;10.84;56.07
74242;BME280;62599;49.146;10.426;2023-04-25T14:50:40;95341.28;;;9.70;59.80
74242;BME280;62599;49.146;10.426;2023-04-25T14:53:26;95342.94;;;9.17;66.62
74242;BME280;62599;49.146;10.426;2023-04-25T14:56:30;95354.50;;;8.76;70.18
74242;BME280;62599;49.146;10.426;2023-04-25T17:35:16;95446.66;;;7.47;85.47
74242;BME280;62599;49.146;10.426;2023-04-25T17:38:07;95441.34;;;7.21;86.95
74242;BME280;62599;49.146;10.426;2023-04-25T17:41:04;95464.50;;;7.09;88.70
74242;BME280;62599;49.146;10.426;2023-04-25T17:44:55;95454.88;;;6.99;89.98
74242;BME280;62599;49.146;10.426;2023-04-25T17:47:56;95450.94;;;6.88;91.01
74242;BME280;62599;49.146;10.426;2023-04-25T17:50:42;95464.31;;;6.88;91.76
74242;BME280;62599;49.146;10.426;2023-04-25T17:57:03;95469.97;;;6.78;93.09
74242;BME280;62599;49.146;10.426;2023-04-25T18:07:27;95472.59;;;6.60;95.32
74242;BME280;62599;49.146;10.426;2023-04-25T18:10:16;95475.88;;;6.57;95.88
74242;BME280;62599;49.146;10.426;2023-04-25T18:13:24;95480.78;;;6.55;96.26
74242;BME280;62599;49.146;10.426;2023-04-25T18:15:57;95481.72;;;6.50;96.38
74242;BME280;62599;49.146;10.426;2023-04-25T18:21:21;95504.50;;;6.48;97.33
74242;BME280;62599;49.146;10.426;2023-04-25T18:24:01;95499.94;;;6.40;98.16
74242;BME280;62599;49.146;10.426;2023-04-25T18:26:35;95504.00;;;6.37;98.05
74242;BME280;62599;49.146;10.426;2023-04-25T18:29:11;95519.44;;;6.40;98.89
74242;BME280;62599;49.146;10.426;2023-04-25T18:31:45;95515.47;;;6.29;99.65
74242;BME280;62599;49.146;10.426;2023-04-25T18:34:24;95516.72;;;6.32;99.42
74242;BME280;62599;49.146;10.426;2023-04-25T18:37:17;95515.56;;;6.24;100.00
74242;BME280;62599;49.146;10.426;2023-04-25T18:44:08;95533.84;;;6.22;100.00
74242;BME280;62599;49.146;10.426;2023-04-25T18:50:05;95529.16;;;6.05;100.00
74242;BME280;62599;49.146;10.426;2023-04-25T18:52:41;95540.00;;;6.00;100.00
74242;BME280;62599;49.146;10.426;2023-04-25T18:55:44;95557.28;;;6.02;100.00
74242;BME280;62599;49.146;10.426;2023-04-25T18:58:12;95546.03;;;5.92;100.00
74242;BME280;62599;49.146;10.426;2023-04-25T19:00:40;95552.78;;;5.89;100.00
74242;BME280;62599;49.146;10.426;2023-04-25T19:06:42;95568.03;;;5.89;100.00
74242;BME280;62599;49.146;10.426;2023-04-25T19:09:10;95555.38;;;5.80;100.00
74242;BME280;62599;49.146;10.426;2023-04-25T19:12:03;95562.94;;;5.78;100.00
74242;BME280;62599;49.146;10.426;2023-04-25T20:57:25;95626.03;;;4.09;100.00
74242;BME280;62599;49.146;10.426;2023-04-25T21:00:41;95628.72;;;4.09;100.00
74242;BME280;62599;49.146;10.426;2023-04-25T21:20:56;95645.31;;;4.52;100.00
74242;BME280;62599;49.146;10.426;2023-04-25T21:23:23;95633.75;;;4.43;100.00
74242;BME280;62599;49.146;10.426;2023-04-25T21:29:29;95632.63;;;4.30;100.00
74242;BME280;62599;49.146;10.426;2023-04-25T21:31:56;95637.75;;;4.27;100.00
74242;BME280;62599;49.146;10.426;2023-04-25T21:34:26;95628.75;;;4.23;100.00
74242;BME280;62599;49.146;10.426;2023-04-25T21:36:59;95626.19;;;4.18;100.00
74242;BME280;62599;49.146;10.426;2023-04-25T21:39:31;95631.53;;;4.18;100.00
74242;BME280;62599;49.146;10.426;2023-04-25T21:42:00;95626.03;;;4.09;100.00
74242;BME280;62599;49.146;10.426;2023-04-25T21:44:34;95624.84;;;4.01;100.00
74242;BME280;62599;49.146;10.426;2023-04-25T21:47:01;95614.56;;;3.95;100.00
74242;BME280;62599;49.146;10.426;2023-04-25T21:49:27;95617.16;;;3.81;100.00
74242;BME280;62599;49.146;10.426;2023-04-25T21:51:57;95625.88;;;3.68;100.00
74242;BME280;62599;49.146;10.426;2023-04-25T21:54:24;95649.13;;;3.62;100.00
74242;BME280;62599;49.146;10.426;2023-04-25T21:56:50;95633.88;;;3.49;100.00
74242;BME280;62599;49.146;10.426;2023-04-25T21:59:15;95625.81;;;3.35;100.00
74242;BME280;62599;49.146;10.426;2023-04-25T22:01:44;95630.16;;;3.26;100.00
74242;BME280;62599;49.146;10.426;2023-04-25T22:04:10;95645.19;;;3.17;100.00
74242;BME280;62599;49.146;10.426;2023-04-25T22:06:35;95653.63;;;3.24;100.00
74242;BME280;62599;49.146;10.426;2023-04-25T22:09:01;95658.94;;;3.24;100.00
74242;BME280;62599;49.146;10.426;2023-04-25T22:11:27;95655.84;;;3.17;100.00
74242;BME280;62599;49.146;10.426;2023-04-25T22:13:52;95663.53;;;3.18;100.00
74242;BME280;62599;49.146;10.426;2023-04-25T22:16:18;95665.75;;;3.11;100.00
74242;BME280;62599;49.146;10.426;2023-04-25T22:18:44;95659.75;;;3.00;100.00
74242;BME280;62599;49.146;10.426;2023-04-25T22:21:11;95658.81;;;2.91;100.00
74242;BME280;62599;49.146;10.426;2023-04-25T22:23:37;95676.03;;;2.94;100.00
74242;BME280;62599;49.146;10.426;2023-04-25T22:26:03;95677.47;;;2.86;100.00
74242;BME280;62599;49.146;10.426;2023-04-25T22:28:29;95677.47;;;2.86;100.00
74242;BME280;62599;49.146;10.426;2023-04-25T22:30:55;95690.66;;;2.96;100.00
74242;BME280;62599;49.146;10.426;2023-04-25T22:33:21;95690.59;;;3.01;100.00
74242;BME280;62599;49.146;10.426;2023-04-25T22:35:47;95690.78;;;3.10;100.00
74242;BME280;62599;49.146;10.426;2023-04-25T22:38:12;95698.66;;;3.20;100.00
74242;BME280;62599;49.146;10.426;2023-04-25T22:40:38;95697.00;;;3.24;100.00
74242;BME280;62599;49.146;10.426;2023-04-25T22:43:06;95689.81;;;3.25;100.00
74242;BME280;62599;49.146;10.426;2023-04-25T22:45:39;95693.47;;;3.29;100.00
74242;BME280;62599;49.146;10.426;2023-04-25T22:48:15;95678.03;;;3.31;100.00
74242;BME280;62599;49.146;10.426;2023-04-25T22:50:47;95686.50;;;3.33;100.00
74242;BME280;62599;49.146;10.426;2023-04-25T22:53:15;95692.28;;;3.40;100.00
74242;BME280;62599;49.146;10.426;2023-04-25T22:56:15;95677.97;;;3.36;100.00
74242;BME280;62599;49.146;10.426;2023-04-25T23:01:47;95682.72;;;3.39;100.00
74242;BME280;62599;49.146;10.426;2023-04-25T23:04:39;95679.03;;;3.35;100.00
74242;BME280;62599;49.146;10.426;2023-04-25T23:07:53;95695.47;;;3.42;100.00
74242;BME280;62599;49.146;10.426;2023-04-25T23:11:19;95676.38;;;3.35;100.00
74242;BME280;62599;49.146;10.426;2023-04-25T23:13:51;95678.47;;;3.38;100.00
74242;BME280;62599;49.146;10.426;2023-04-25T23:23:02;95674.84;;;3.29;100.00
74242;BME280;62599;49.146;10.426;2023-04-25T23:32:58;95691.44;;;2.73;100.00
74242;BME280;62599;49.146;10.426;2023-04-25T23:35:26;95699.50;;;2.62;100.00
74242;BME280;62599;49.146;10.426;2023-04-25T23:37:52;95691.09;;;2.50;100.00
74242;BME280;62599;49.146;10.426;2023-04-25T23:40:26;95693.63;;;2.36;100.00
74242;BME280;62599;49.146;10.426;2023-04-25T23:42:52;95702.41;;;2.32;100.00
74242;BME280;62599;49.146;10.426;2023-04-25T23:45:17;95701.66;;;2.26;100.00
74242;BME280;62599;49.146;10.426;2023-04-25T23:47:55;95701.69;;;2.21;100.00
74242;BME280;62599;49.146;10.426;2023-04-25T23:50:26;95705.72;;;2.19;100.00
74242;BME280;62599;49.146;10.426;2023-04-25T23:53:00;95718.94;;;2.24;100.00
74242;BME280;62599;49.146;10.426;2023-04-25T23:55:32;95704.63;;;2.20;100.00
74242;BME280;62599;49.146;10.426;2023-04-25T23:58:10;95705.44;;;2.20;100.00
